sensor_id;sensor_type;location;lat;lon;timestamp;temperature;humidity
73683;DHT22;61982;48.548;12.182;2022-07-10T00:02:08;16.60;90.20
73683;DHT22;61982;48.548;12.182;2022-07-10T00:04:36;16.50;89.70
73683;DHT22;61982;48.548;12.182;2022-07-10T00:07:04;16.50;89.30
73683;DHT22;61982;48.548;12.182;2022-07-10T00:09:32;16.50;89.20
73683;DHT22;61982;48.548;12.182;2022-07-10T00:12:01;16.50;89.60
73683;DHT22;61982;48.548;12.182;2022-07-10T00:14:28;16.50;90.00
73683;DHT22;61982;48.548;12.182;2022-07-10T00:16:56;16.50;90.40
73683;DHT22;61982;48.548;12.182;2022-07-10T00:19:23;16.50;90.30
73683;DHT22;61982;48.548;12.182;2022-07-10T00:21:51;16.50;89.70
73683;DHT22;61982;48.548;12.182;2022-07-10T00:24:18;16.50;90.30
73683;DHT22;61982;48.548;12.182;2022-07-10T00:26:46;16.50;90.50
73683;DHT22;61982;48.548;12.182;2022-07-10T00:29:14;16.50;90.50
73683;DHT22;61982;48.548;12.182;2022-07-10T00:31:42;16.50;90.60
73683;DHT22;61982;48.548;12.182;2022-07-10T00:34:10;16.50;90.40
73683;DHT22;61982;48.548;12.182;2022-07-10T00:36:39;16.50;90.30
73683;DHT22;61982;48.548;12.182;2022-07-10T00:39:06;16.50;90.30
73683;DHT22;61982;48.548;12.182;2022-07-10T00:41:34;16.50;90.30
73683;DHT22;61982;48.548;12.182;2022-07-10T00:44:02;16.50;90.10
73683;DHT22;61982;48.548;12.182;2022-07-10T00:46:32;16.50;89.00
73683;DHT22;61982;48.548;12.182;2022-07-10T00:48:59;16.50;88.50
73683;DHT22;61982;48.548;12.182;2022-07-10T00:51:29;16.50;88.50
73683;DHT22;61982;48.548;12.182;2022-07-10T00:53:57;16.50;88.10
73683;DHT22;61982;48.548;12.182;2022-07-10T00:56:26;16.50;87.70
73683;DHT22;61982;48.548;12.182;2022-07-10T00:58:54;16.50;88.50
73683;DHT22;61982;48.548;12.182;2022-07-10T01:01:22;16.50;88.70
73683;DHT22;61982;48.548;12.182;2022-07-10T01:03:50;16.40;89.20
73683;DHT22;61982;48.548;12.182;2022-07-10T01:06:18;16.40;89.00
73683;DHT22;61982;48.548;12.182;2022-07-10T01:08:46;16.50;88.80
73683;DHT22;61982;48.548;12.182;2022-07-10T01:11:15;16.50;88.80
73683;DHT22;61982;48.548;12.182;2022-07-10T01:13:43;16.50;89.30
73683;DHT22;61982;48.548;12.182;2022-07-10T01:16:11;16.50;89.10
73683;DHT22;61982;48.548;12.182;2022-07-10T01:18:39;16.50;88.50
73683;DHT22;61982;48.548;12.182;2022-07-10T01:21:32;16.50;88.20
73683;DHT22;61982;48.548;12.182;2022-07-10T01:23:57;16.50;88.50
73683;DHT22;61982;48.548;12.182;2022-07-10T01:26:25;16.50;88.20
73683;DHT22;61982;48.548;12.182;2022-07-10T01:28:54;16.50;88.30
73683;DHT22;61982;48.548;12.182;2022-07-10T01:31:26;16.50;87.90
73683;DHT22;61982;48.548;12.182;2022-07-10T01:33:54;16.50;88.70
73683;DHT22;61982;48.548;12.182;2022-07-10T01:36:23;16.50;88.80
73683;DHT22;61982;48.548;12.182;2022-07-10T01:38:54;16.50;88.00
73683;DHT22;61982;48.548;12.182;2022-07-10T01:41:24;16.40;87.60
73683;DHT22;61982;48.548;12.182;2022-07-10T01:43:51;16.40;87.50
73683;DHT22;61982;48.548;12.182;2022-07-10T01:46:20;16.40;88.10
73683;DHT22;61982;48.548;12.182;2022-07-10T01:48:48;16.40;87.80
73683;DHT22;61982;48.548;12.182;2022-07-10T01:51:16;16.40;87.70
73683;DHT22;61982;48.548;12.182;2022-07-10T01:53:43;16.40;88.10
73683;DHT22;61982;48.548;12.182;2022-07-10T01:56:13;16.40;89.10
73683;DHT22;61982;48.548;12.182;2022-07-10T01:58:41;16.30;88.60
73683;DHT22;61982;48.548;12.182;2022-07-10T02:01:10;16.30;88.70
73683;DHT22;61982;48.548;12.182;2022-07-10T02:03:38;16.30;88.60
73683;DHT22;61982;48.548;12.182;2022-07-10T02:06:24;16.30;88.40
73683;DHT22;61982;48.548;12.182;2022-07-10T02:08:51;16.30;88.80
73683;DHT22;61982;48.548;12.182;2022-07-10T02:11:19;16.30;89.00
73683;DHT22;61982;48.548;12.182;2022-07-10T02:13:46;16.30;88.70
73683;DHT22;61982;48.548;12.182;2022-07-10T02:16:14;16.30;89.20
73683;DHT22;61982;48.548;12.182;2022-07-10T02:18:42;16.20;88.50
73683;DHT22;61982;48.548;12.182;2022-07-10T02:21:09;16.20;88.50
73683;DHT22;61982;48.548;12.182;2022-07-10T02:23:37;16.20;88.40
73683;DHT22;61982;48.548;12.182;2022-07-10T02:26:06;16.20;88.60
73683;DHT22;61982;48.548;12.182;2022-07-10T02:28:35;16.20;88.80
73683;DHT22;61982;48.548;12.182;2022-07-10T02:31:02;16.10;88.30
73683;DHT22;61982;48.548;12.182;2022-07-10T02:33:30;16.10;87.80
73683;DHT22;61982;48.548;12.182;2022-07-10T02:35:57;16.00;87.90
73683;DHT22;61982;48.548;12.182;2022-07-10T02:38:25;15.90;88.00
73683;DHT22;61982;48.548;12.182;2022-07-10T02:40:52;15.90;88.20
73683;DHT22;61982;48.548;12.182;2022-07-10T02:43:20;16.00;88.60
73683;DHT22;61982;48.548;12.182;2022-07-10T02:45:47;16.00;88.40
73683;DHT22;61982;48.548;12.182;2022-07-10T02:48:15;16.00;88.80
73683;DHT22;61982;48.548;12.182;2022-07-10T02:50:44;15.90;87.70
73683;DHT22;61982;48.548;12.182;2022-07-10T02:53:12;16.00;87.60
73683;DHT22;61982;48.548;12.182;2022-07-10T02:55:39;16.00;87.60
73683;DHT22;61982;48.548;12.182;2022-07-10T02:58:07;16.00;87.30
73683;DHT22;61982;48.548;12.182;2022-07-10T03:00:36;16.00;87.00
73683;DHT22;61982;48.548;12.182;2022-07-10T03:03:04;16.00;87.10
73683;DHT22;61982;48.548;12.182;2022-07-10T03:05:31;16.00;87.00
73683;DHT22;61982;48.548;12.182;2022-07-10T03:07:59;16.00;86.70
73683;DHT22;61982;48.548;12.182;2022-07-10T03:10:27;16.00;86.90
73683;DHT22;61982;48.548;12.182;2022-07-10T03:12:54;15.90;86.80
73683;DHT22;61982;48.548;12.182;2022-07-10T03:15:22;15.90;87.20
73683;DHT22;61982;48.548;12.182;2022-07-10T03:17:50;15.80;86.80
73683;DHT22;61982;48.548;12.182;2022-07-10T03:20:17;15.70;86.60
73683;DHT22;61982;48.548;12.182;2022-07-10T03:22:44;15.70;86.50
73683;DHT22;61982;48.548;12.182;2022-07-10T03:25:12;15.60;86.80
73683;DHT22;61982;48.548;12.182;2022-07-10T03:27:40;15.50;86.60
73683;DHT22;61982;48.548;12.182;2022-07-10T03:30:09;15.50;86.30
73683;DHT22;61982;48.548;12.182;2022-07-10T03:32:37;15.40;86.80
73683;DHT22;61982;48.548;12.182;2022-07-10T03:35:05;15.40;86.50
73683;DHT22;61982;48.548;12.182;2022-07-10T03:37:32;15.40;86.50
73683;DHT22;61982;48.548;12.182;2022-07-10T03:40:00;15.30;86.60
73683;DHT22;61982;48.548;12.182;2022-07-10T03:42:27;15.30;86.90
73683;DHT22;61982;48.548;12.182;2022-07-10T03:44:55;15.30;87.00
73683;DHT22;61982;48.548;12.182;2022-07-10T03:47:22;15.20;86.90
73683;DHT22;61982;48.548;12.182;2022-07-10T03:49:50;15.20;87.10
73683;DHT22;61982;48.548;12.182;2022-07-10T03:52:17;15.10;87.00
73683;DHT22;61982;48.548;12.182;2022-07-10T03:54:45;15.10;87.10
73683;DHT22;61982;48.548;12.182;2022-07-10T03:57:12;15.00;87.30
73683;DHT22;61982;48.548;12.182;2022-07-10T03:59:58;15.00;87.40
73683;DHT22;61982;48.548;12.182;2022-07-10T04:02:26;14.90;87.60
73683;DHT22;61982;48.548;12.182;2022-07-10T04:04:53;14.90;87.50
73683;DHT22;61982;48.548;12.182;2022-07-10T04:07:21;14.90;87.80
73683;DHT22;61982;48.548;12.182;2022-07-10T04:09:49;14.80;87.80
73683;DHT22;61982;48.548;12.182;2022-07-10T04:12:16;14.90;87.90
73683;DHT22;61982;48.548;12.182;2022-07-10T04:14:44;14.80;87.80
73683;DHT22;61982;48.548;12.182;2022-07-10T04:17:11;14.80;88.40
73683;DHT22;61982;48.548;12.182;2022-07-10T04:19:39;14.80;88.50
73683;DHT22;61982;48.548;12.182;2022-07-10T04:22:06;14.70;88.50
73683;DHT22;61982;48.548;12.182;2022-07-10T04:24:34;14.70;88.50
73683;DHT22;61982;48.548;12.182;2022-07-10T04:27:01;14.70;88.60
73683;DHT22;61982;48.548;12.182;2022-07-10T04:29:29;14.70;88.90
73683;DHT22;61982;48.548;12.182;2022-07-10T04:31:57;14.70;89.10
73683;DHT22;61982;48.548;12.182;2022-07-10T04:34:25;14.70;90.00
73683;DHT22;61982;48.548;12.182;2022-07-10T04:36:52;14.70;89.30
73683;DHT22;61982;48.548;12.182;2022-07-10T04:39:20;14.70;89.30
73683;DHT22;61982;48.548;12.182;2022-07-10T04:41:48;14.70;89.10
73683;DHT22;61982;48.548;12.182;2022-07-10T04:44:16;14.70;89.20
73683;DHT22;61982;48.548;12.182;2022-07-10T04:46:43;14.70;89.20
73683;DHT22;61982;48.548;12.182;2022-07-10T04:49:11;14.80;89.20
73683;DHT22;61982;48.548;12.182;2022-07-10T04:51:39;14.90;89.30
73683;DHT22;61982;48.548;12.182;2022-07-10T04:54:07;15.00;89.20
73683;DHT22;61982;48.548;12.182;2022-07-10T04:56:35;15.00;89.20
73683;DHT22;61982;48.548;12.182;2022-07-10T04:59:02;15.00;89.10
73683;DHT22;61982;48.548;12.182;2022-07-10T05:01:30;15.00;88.70
73683;DHT22;61982;48.548;12.182;2022-07-10T05:03:57;15.00;88.50
73683;DHT22;61982;48.548;12.182;2022-07-10T05:06:25;15.00;88.50
73683;DHT22;61982;48.548;12.182;2022-07-10T05:08:52;15.00;88.50
73683;DHT22;61982;48.548;12.182;2022-07-10T05:11:22;15.00;88.60
73683;DHT22;61982;48.548;12.182;2022-07-10T05:13:50;15.00;88.50
73683;DHT22;61982;48.548;12.182;2022-07-10T05:16:17;14.90;88.30
73683;DHT22;61982;48.548;12.182;2022-07-10T05:18:45;14.90;87.90
73683;DHT22;61982;48.548;12.182;2022-07-10T05:21:13;15.00;88.10
73683;DHT22;61982;48.548;12.182;2022-07-10T05:23:41;15.00;87.60
73683;DHT22;61982;48.548;12.182;2022-07-10T05:26:08;15.10;88.10
73683;DHT22;61982;48.548;12.182;2022-07-10T05:28:36;15.20;87.00
73683;DHT22;61982;48.548;12.182;2022-07-10T05:31:03;15.40;86.30
73683;DHT22;61982;48.548;12.182;2022-07-10T05:33:31;15.50;85.00
73683;DHT22;61982;48.548;12.182;2022-07-10T05:35:59;15.60;84.20
73683;DHT22;61982;48.548;12.182;2022-07-10T05:38:26;15.80;84.00
73683;DHT22;61982;48.548;12.182;2022-07-10T05:40:54;15.80;83.00
73683;DHT22;61982;48.548;12.182;2022-07-10T05:43:21;15.90;82.80
73683;DHT22;61982;48.548;12.182;2022-07-10T05:45:49;16.00;82.00
73683;DHT22;61982;48.548;12.182;2022-07-10T05:48:16;16.00;82.40
73683;DHT22;61982;48.548;12.182;2022-07-10T05:50:44;16.10;82.60
73683;DHT22;61982;48.548;12.182;2022-07-10T05:53:11;16.10;81.30
73683;DHT22;61982;48.548;12.182;2022-07-10T05:55:39;16.10;81.70
73683;DHT22;61982;48.548;12.182;2022-07-10T05:58:06;16.00;82.40
73683;DHT22;61982;48.548;12.182;2022-07-10T06:00:34;15.90;81.80
73683;DHT22;61982;48.548;12.182;2022-07-10T06:03:01;15.80;81.80
73683;DHT22;61982;48.548;12.182;2022-07-10T06:05:29;15.70;82.00
73683;DHT22;61982;48.548;12.182;2022-07-10T06:07:56;15.70;82.10
73683;DHT22;61982;48.548;12.182;2022-07-10T06:10:24;15.70;81.50
73683;DHT22;61982;48.548;12.182;2022-07-10T06:12:51;15.60;82.10
73683;DHT22;61982;48.548;12.182;2022-07-10T06:15:19;15.60;82.90
73683;DHT22;61982;48.548;12.182;2022-07-10T06:17:46;15.70;82.50
73683;DHT22;61982;48.548;12.182;2022-07-10T06:20:14;15.70;81.70
73683;DHT22;61982;48.548;12.182;2022-07-10T06:22:42;15.70;81.60
73683;DHT22;61982;48.548;12.182;2022-07-10T06:25:09;15.70;81.60
73683;DHT22;61982;48.548;12.182;2022-07-10T06:27:38;15.80;82.00
73683;DHT22;61982;48.548;12.182;2022-07-10T06:30:06;15.90;80.80
73683;DHT22;61982;48.548;12.182;2022-07-10T06:32:34;16.10;80.50
73683;DHT22;61982;48.548;12.182;2022-07-10T06:35:01;16.40;80.20
73683;DHT22;61982;48.548;12.182;2022-07-10T06:37:31;16.50;78.60
73683;DHT22;61982;48.548;12.182;2022-07-10T06:39:59;16.60;77.60
73683;DHT22;61982;48.548;12.182;2022-07-10T06:42:26;16.50;77.60
73683;DHT22;61982;48.548;12.182;2022-07-10T06:44:54;16.50;77.90
73683;DHT22;61982;48.548;12.182;2022-07-10T06:47:22;16.50;77.10
73683;DHT22;61982;48.548;12.182;2022-07-10T06:50:08;16.60;77.40
73683;DHT22;61982;48.548;12.182;2022-07-10T06:52:37;16.90;76.40
73683;DHT22;61982;48.548;12.182;2022-07-10T06:55:05;17.10;77.60
73683;DHT22;61982;48.548;12.182;2022-07-10T06:57:33;17.40;75.90
73683;DHT22;61982;48.548;12.182;2022-07-10T07:00:01;17.60;74.70
73683;DHT22;61982;48.548;12.182;2022-07-10T07:02:28;17.70;73.90
73683;DHT22;61982;48.548;12.182;2022-07-10T07:04:56;17.70;73.70
73683;DHT22;61982;48.548;12.182;2022-07-10T07:07:24;17.80;73.20
73683;DHT22;61982;48.548;12.182;2022-07-10T07:09:51;17.80;73.40
73683;DHT22;61982;48.548;12.182;2022-07-10T07:12:19;17.80;73.60
73683;DHT22;61982;48.548;12.182;2022-07-10T07:14:47;17.70;73.80
73683;DHT22;61982;48.548;12.182;2022-07-10T07:17:14;17.60;74.00
73683;DHT22;61982;48.548;12.182;2022-07-10T07:19:44;17.60;73.60
73683;DHT22;61982;48.548;12.182;2022-07-10T07:22:29;17.60;73.20
73683;DHT22;61982;48.548;12.182;2022-07-10T07:25:14;17.60;73.30
73683;DHT22;61982;48.548;12.182;2022-07-10T07:27:42;17.80;72.90
73683;DHT22;61982;48.548;12.182;2022-07-10T07:30:11;17.80;72.30
73683;DHT22;61982;48.548;12.182;2022-07-10T07:32:42;17.70;72.50
73683;DHT22;61982;48.548;12.182;2022-07-10T07:35:11;17.70;72.50
73683;DHT22;61982;48.548;12.182;2022-07-10T07:37:41;17.70;72.70
73683;DHT22;61982;48.548;12.182;2022-07-10T07:40:10;17.90;73.30
73683;DHT22;61982;48.548;12.182;2022-07-10T07:42:38;18.00;71.80
73683;DHT22;61982;48.548;12.182;2022-07-10T07:45:08;18.10;71.70
73683;DHT22;61982;48.548;12.182;2022-07-10T07:47:46;18.10;70.60
73683;DHT22;61982;48.548;12.182;2022-07-10T07:50:16;18.10;70.00
73683;DHT22;61982;48.548;12.182;2022-07-10T07:52:45;18.00;71.90
73683;DHT22;61982;48.548;12.182;2022-07-10T07:55:14;18.00;71.80
73683;DHT22;61982;48.548;12.182;2022-07-10T07:57:43;18.10;71.00
73683;DHT22;61982;48.548;12.182;2022-07-10T08:00:13;18.00;70.40
73683;DHT22;61982;48.548;12.182;2022-07-10T08:02:41;17.90;71.50
73683;DHT22;61982;48.548;12.182;2022-07-10T08:05:09;17.80;71.80
73683;DHT22;61982;48.548;12.182;2022-07-10T08:07:42;17.70;72.10
73683;DHT22;61982;48.548;12.182;2022-07-10T08:10:12;17.70;70.00
73683;DHT22;61982;48.548;12.182;2022-07-10T08:12:41;17.80;71.80
73683;DHT22;61982;48.548;12.182;2022-07-10T08:15:11;17.90;69.70
73683;DHT22;61982;48.548;12.182;2022-07-10T08:17:39;18.10;69.50
73683;DHT22;61982;48.548;12.182;2022-07-10T08:20:10;18.20;66.80
73683;DHT22;61982;48.548;12.182;2022-07-10T08:22:37;18.30;68.20
73683;DHT22;61982;48.548;12.182;2022-07-10T08:25:05;18.20;66.20
73683;DHT22;61982;48.548;12.182;2022-07-10T08:27:33;18.10;66.10
73683;DHT22;61982;48.548;12.182;2022-07-10T08:30:01;18.10;67.20
73683;DHT22;61982;48.548;12.182;2022-07-10T08:32:29;18.20;63.20
73683;DHT22;61982;48.548;12.182;2022-07-10T08:34:56;18.30;63.20
73683;DHT22;61982;48.548;12.182;2022-07-10T08:37:25;18.20;64.20
73683;DHT22;61982;48.548;12.182;2022-07-10T08:39:52;18.10;64.10
73683;DHT22;61982;48.548;12.182;2022-07-10T08:42:21;18.10;64.90
73683;DHT22;61982;48.548;12.182;2022-07-10T08:44:51;18.30;64.00
73683;DHT22;61982;48.548;12.182;2022-07-10T08:47:21;18.40;64.30
73683;DHT22;61982;48.548;12.182;2022-07-10T08:49:49;18.40;63.00
73683;DHT22;61982;48.548;12.182;2022-07-10T08:52:23;18.20;63.00
73683;DHT22;61982;48.548;12.182;2022-07-10T08:54:47;18.10;63.40
73683;DHT22;61982;48.548;12.182;2022-07-10T08:57:16;18.10;64.30
73683;DHT22;61982;48.548;12.182;2022-07-10T08:59:44;18.00;63.80
73683;DHT22;61982;48.548;12.182;2022-07-10T09:02:12;17.90;64.90
73683;DHT22;61982;48.548;12.182;2022-07-10T09:04:39;17.90;65.20
73683;DHT22;61982;48.548;12.182;2022-07-10T09:07:07;18.10;65.00
73683;DHT22;61982;48.548;12.182;2022-07-10T09:09:56;18.10;64.50
73683;DHT22;61982;48.548;12.182;2022-07-10T09:12:25;18.00;63.10
73683;DHT22;61982;48.548;12.182;2022-07-10T09:14:52;17.90;64.70
73683;DHT22;61982;48.548;12.182;2022-07-10T09:17:20;17.90;64.30
73683;DHT22;61982;48.548;12.182;2022-07-10T09:19:48;17.90;61.80
73683;DHT22;61982;48.548;12.182;2022-07-10T09:22:15;18.10;61.70
73683;DHT22;61982;48.548;12.182;2022-07-10T09:24:47;18.20;61.80
73683;DHT22;61982;48.548;12.182;2022-07-10T09:27:15;18.40;61.70
73683;DHT22;61982;48.548;12.182;2022-07-10T09:29:48;18.60;60.60
73683;DHT22;61982;48.548;12.182;2022-07-10T09:32:17;18.60;61.40
73683;DHT22;61982;48.548;12.182;2022-07-10T09:34:52;18.60;58.20
73683;DHT22;61982;48.548;12.182;2022-07-10T09:37:26;18.50;59.30
73683;DHT22;61982;48.548;12.182;2022-07-10T09:39:59;18.40;58.60
73683;DHT22;61982;48.548;12.182;2022-07-10T09:42:32;18.20;59.60
73683;DHT22;61982;48.548;12.182;2022-07-10T09:45:14;18.10;58.10
73683;DHT22;61982;48.548;12.182;2022-07-10T09:48:00;18.10;59.40
73683;DHT22;61982;48.548;12.182;2022-07-10T09:50:31;18.30;57.00
73683;DHT22;61982;48.548;12.182;2022-07-10T09:53:04;18.50;56.80
73683;DHT22;61982;48.548;12.182;2022-07-10T09:55:33;18.50;55.60
73683;DHT22;61982;48.548;12.182;2022-07-10T09:58:06;18.50;56.00
73683;DHT22;61982;48.548;12.182;2022-07-10T10:00:36;18.60;55.10
73683;DHT22;61982;48.548;12.182;2022-07-10T10:03:06;18.70;56.30
73683;DHT22;61982;48.548;12.182;2022-07-10T10:05:53;18.50;55.00
73683;DHT22;61982;48.548;12.182;2022-07-10T10:11:01;18.80;54.70
73683;DHT22;61982;48.548;12.182;2022-07-10T10:13:30;18.80;53.70
73683;DHT22;61982;48.548;12.182;2022-07-10T10:15:57;18.90;54.50
73683;DHT22;61982;48.548;12.182;2022-07-10T10:18:26;19.00;54.20
73683;DHT22;61982;48.548;12.182;2022-07-10T10:20:56;19.10;54.30
73683;DHT22;61982;48.548;12.182;2022-07-10T10:23:24;19.10;54.00
73683;DHT22;61982;48.548;12.182;2022-07-10T10:25:56;19.10;53.50
73683;DHT22;61982;48.548;12.182;2022-07-10T10:28:25;19.20;53.80
73683;DHT22;61982;48.548;12.182;2022-07-10T10:30:55;19.50;52.90
73683;DHT22;61982;48.548;12.182;2022-07-10T10:36:08;19.40;51.00
73683;DHT22;61982;48.548;12.182;2022-07-10T10:39:00;19.20;50.90
73683;DHT22;61982;48.548;12.182;2022-07-10T10:41:38;19.20;51.20
73683;DHT22;61982;48.548;12.182;2022-07-10T10:46:54;19.10;49.90
73683;DHT22;61982;48.548;12.182;2022-07-10T10:49:27;19.10;51.70
73683;DHT22;61982;48.548;12.182;2022-07-10T10:52:09;19.20;49.40
73683;DHT22;61982;48.548;12.182;2022-07-10T11:00:08;19.00;51.50
73683;DHT22;61982;48.548;12.182;2022-07-10T11:02:38;19.10;49.80
73683;DHT22;61982;48.548;12.182;2022-07-10T11:08:02;19.50;50.90
73683;DHT22;61982;48.548;12.182;2022-07-10T11:10:32;19.80;48.50
73683;DHT22;61982;48.548;12.182;2022-07-10T11:13:07;19.90;47.80
73683;DHT22;61982;48.548;12.182;2022-07-10T11:15:50;19.80;48.50
73683;DHT22;61982;48.548;12.182;2022-07-10T11:18:16;19.80;47.40
73683;DHT22;61982;48.548;12.182;2022-07-10T11:20:50;20.00;48.10
73683;DHT22;61982;48.548;12.182;2022-07-10T11:26:35;20.10;45.70
73683;DHT22;61982;48.548;12.182;2022-07-10T11:29:04;20.00;45.30
73683;DHT22;61982;48.548;12.182;2022-07-10T11:31:34;20.10;46.00
73683;DHT22;61982;48.548;12.182;2022-07-10T11:34:04;20.30;45.80
73683;DHT22;61982;48.548;12.182;2022-07-10T11:36:31;20.40;46.10
73683;DHT22;61982;48.548;12.182;2022-07-10T11:39:02;20.50;47.20
73683;DHT22;61982;48.548;12.182;2022-07-10T11:41:31;20.50;45.10
73683;DHT22;61982;48.548;12.182;2022-07-10T11:44:03;20.50;46.30
73683;DHT22;61982;48.548;12.182;2022-07-10T11:46:33;20.50;46.10
73683;DHT22;61982;48.548;12.182;2022-07-10T11:49:05;20.50;45.40
73683;DHT22;61982;48.548;12.182;2022-07-10T11:51:36;20.40;45.50
73683;DHT22;61982;48.548;12.182;2022-07-10T11:54:06;20.30;45.60
73683;DHT22;61982;48.548;12.182;2022-07-10T11:56:37;20.30;46.10
73683;DHT22;61982;48.548;12.182;2022-07-10T11:59:14;20.30;45.30
73683;DHT22;61982;48.548;12.182;2022-07-10T12:01:44;20.40;47.00
73683;DHT22;61982;48.548;12.182;2022-07-10T12:04:14;20.40;45.10
73683;DHT22;61982;48.548;12.182;2022-07-10T12:06:44;20.40;45.10
73683;DHT22;61982;48.548;12.182;2022-07-10T12:09:13;20.50;45.40
73683;DHT22;61982;48.548;12.182;2022-07-10T12:11:43;20.50;45.10
73683;DHT22;61982;48.548;12.182;2022-07-10T12:14:13;20.60;45.80
73683;DHT22;61982;48.548;12.182;2022-07-10T12:16:42;20.60;47.10
73683;DHT22;61982;48.548;12.182;2022-07-10T12:19:13;20.70;45.00
73683;DHT22;61982;48.548;12.182;2022-07-10T12:21:43;20.70;46.90
73683;DHT22;61982;48.548;12.182;2022-07-10T12:24:13;20.70;44.40
73683;DHT22;61982;48.548;12.182;2022-07-10T12:26:43;20.70;45.20
73683;DHT22;61982;48.548;12.182;2022-07-10T12:29:25;20.80;44.00
73683;DHT22;61982;48.548;12.182;2022-07-10T12:32:00;20.70;45.00
73683;DHT22;61982;48.548;12.182;2022-07-10T12:34:42;20.70;45.30
73683;DHT22;61982;48.548;12.182;2022-07-10T12:37:11;20.60;44.10
73683;DHT22;61982;48.548;12.182;2022-07-10T12:39:52;20.70;43.00
73683;DHT22;61982;48.548;12.182;2022-07-10T12:42:29;20.70;44.60
73683;DHT22;61982;48.548;12.182;2022-07-10T12:45:10;20.80;44.90
73683;DHT22;61982;48.548;12.182;2022-07-10T12:47:48;20.90;43.70
73683;DHT22;61982;48.548;12.182;2022-07-10T12:50:17;20.80;43.60
73683;DHT22;61982;48.548;12.182;2022-07-10T12:52:45;20.60;43.90
73683;DHT22;61982;48.548;12.182;2022-07-10T12:55:17;20.50;44.60
73683;DHT22;61982;48.548;12.182;2022-07-10T12:57:57;20.40;46.30
73683;DHT22;61982;48.548;12.182;2022-07-10T13:00:33;20.40;45.80
73683;DHT22;61982;48.548;12.182;2022-07-10T13:03:05;20.50;45.20
73683;DHT22;61982;48.548;12.182;2022-07-10T13:05:41;20.70;44.80
73683;DHT22;61982;48.548;12.182;2022-07-10T13:08:16;21.00;43.50
73683;DHT22;61982;48.548;12.182;2022-07-10T13:10:52;21.10;42.40
73683;DHT22;61982;48.548;12.182;2022-07-10T13:13:21;21.50;42.30
73683;DHT22;61982;48.548;12.182;2022-07-10T13:15:49;24.10;40.80
73683;DHT22;61982;48.548;12.182;2022-07-10T13:18:26;27.60;34.80
73683;DHT22;61982;48.548;12.182;2022-07-10T13:20:56;29.20;32.10
73683;DHT22;61982;48.548;12.182;2022-07-10T13:23:25;28.30;30.00
73683;DHT22;61982;48.548;12.182;2022-07-10T13:25:54;27.20;31.10
73683;DHT22;61982;48.548;12.182;2022-07-10T13:28:22;26.30;31.80
73683;DHT22;61982;48.548;12.182;2022-07-10T13:30:50;25.90;33.10
73683;DHT22;61982;48.548;12.182;2022-07-10T13:33:17;25.70;33.30
73683;DHT22;61982;48.548;12.182;2022-07-10T13:35:45;25.10;32.70
73683;DHT22;61982;48.548;12.182;2022-07-10T13:38:14;24.90;36.30
73683;DHT22;61982;48.548;12.182;2022-07-10T13:40:44;24.70;34.80
73683;DHT22;61982;48.548;12.182;2022-07-10T13:43:14;24.20;35.30
73683;DHT22;61982;48.548;12.182;2022-07-10T13:45:43;23.80;36.50
73683;DHT22;61982;48.548;12.182;2022-07-10T13:48:12;23.60;36.20
73683;DHT22;61982;48.548;12.182;2022-07-10T13:50:42;23.40;37.50
73683;DHT22;61982;48.548;12.182;2022-07-10T13:53:10;23.50;40.10
73683;DHT22;61982;48.548;12.182;2022-07-10T13:55:37;23.60;36.90
73683;DHT22;61982;48.548;12.182;2022-07-10T13:58:05;23.40;37.10
73683;DHT22;61982;48.548;12.182;2022-07-10T14:00:33;23.20;37.90
73683;DHT22;61982;48.548;12.182;2022-07-10T14:03:00;23.10;37.70
73683;DHT22;61982;48.548;12.182;2022-07-10T14:05:28;23.20;37.70
73683;DHT22;61982;48.548;12.182;2022-07-10T14:07:56;23.20;38.20
73683;DHT22;61982;48.548;12.182;2022-07-10T14:10:23;23.10;38.10
73683;DHT22;61982;48.548;12.182;2022-07-10T14:12:53;23.00;38.60
73683;DHT22;61982;48.548;12.182;2022-07-10T14:15:20;22.80;38.90
73683;DHT22;61982;48.548;12.182;2022-07-10T14:17:48;22.70;39.60
73683;DHT22;61982;48.548;12.182;2022-07-10T14:20:17;22.50;38.90
73683;DHT22;61982;48.548;12.182;2022-07-10T14:22:45;22.10;38.90
73683;DHT22;61982;48.548;12.182;2022-07-10T14:25:14;22.00;40.20
73683;DHT22;61982;48.548;12.182;2022-07-10T14:27:41;22.00;41.30
73683;DHT22;61982;48.548;12.182;2022-07-10T14:30:09;22.00;40.40
73683;DHT22;61982;48.548;12.182;2022-07-10T14:32:37;22.00;40.30
73683;DHT22;61982;48.548;12.182;2022-07-10T14:35:05;22.30;40.20
73683;DHT22;61982;48.548;12.182;2022-07-10T14:37:33;22.40;39.50
73683;DHT22;61982;48.548;12.182;2022-07-10T14:40:01;22.40;38.60
73683;DHT22;61982;48.548;12.182;2022-07-10T14:42:29;22.40;40.20
73683;DHT22;61982;48.548;12.182;2022-07-10T14:44:56;22.60;39.10
73683;DHT22;61982;48.548;12.182;2022-07-10T14:47:23;22.90;39.90
73683;DHT22;61982;48.548;12.182;2022-07-10T14:49:51;23.20;40.70
73683;DHT22;61982;48.548;12.182;2022-07-10T14:52:19;23.20;38.00
73683;DHT22;61982;48.548;12.182;2022-07-10T14:54:48;23.10;38.70
73683;DHT22;61982;48.548;12.182;2022-07-10T14:57:17;23.00;38.50
73683;DHT22;61982;48.548;12.182;2022-07-10T14:59:45;22.90;39.20
73683;DHT22;61982;48.548;12.182;2022-07-10T15:02:12;22.60;37.60
73683;DHT22;61982;48.548;12.182;2022-07-10T15:04:40;22.40;39.40
73683;DHT22;61982;48.548;12.182;2022-07-10T15:07:07;22.30;39.10
73683;DHT22;61982;48.548;12.182;2022-07-10T15:09:35;22.10;39.50
73683;DHT22;61982;48.548;12.182;2022-07-10T15:12:02;22.10;40.70
73683;DHT22;61982;48.548;12.182;2022-07-10T15:14:30;22.10;40.10
73683;DHT22;61982;48.548;12.182;2022-07-10T15:16:58;22.20;39.70
73683;DHT22;61982;48.548;12.182;2022-07-10T15:19:25;22.10;40.40
73683;DHT22;61982;48.548;12.182;2022-07-10T15:21:53;22.10;39.50
73683;DHT22;61982;48.548;12.182;2022-07-10T15:24:21;22.10;39.30
73683;DHT22;61982;48.548;12.182;2022-07-10T15:26:49;22.00;39.30
73683;DHT22;61982;48.548;12.182;2022-07-10T15:29:17;21.80;40.00
73683;DHT22;61982;48.548;12.182;2022-07-10T15:31:46;21.80;39.70
73683;DHT22;61982;48.548;12.182;2022-07-10T15:34:14;21.70;41.60
73683;DHT22;61982;48.548;12.182;2022-07-10T15:36:42;21.70;41.30
73683;DHT22;61982;48.548;12.182;2022-07-10T15:39:12;21.70;40.90
73683;DHT22;61982;48.548;12.182;2022-07-10T15:41:42;21.70;40.90
73683;DHT22;61982;48.548;12.182;2022-07-10T15:44:12;21.80;40.90
73683;DHT22;61982;48.548;12.182;2022-07-10T15:46:40;21.70;41.10
73683;DHT22;61982;48.548;12.182;2022-07-10T15:49:07;21.50;42.70